Time;durP1;ratioP1;P1;durP2;ratioP2;P2;SDS_P1;SDS_P2;PMS_P1;PMS_P2;Temp;Humidity;BMP_temperature;BMP_pressure;BME280_temperature;BME280_humidity;BME280_pressure;Samples;Min_cycle;Max_cycle;Signal;HPM_P1;HPM_P2
2024/04/07 00:01:22;;;;;;;0.00;0.00;;;;;;;;;;7398645;19;20138;-52
2024/04/07 00:03:49;;;;;;;0.10;0.10;;;;;;;;;;7398962;19;20226;-51
2024/04/07 00:06:18;;;;;;;0.10;0.10;;;;;;;;;;7399462;19;20158;-53
2024/04/07 00:08:48;;;;;;;0.10;0.10;;;;;;;;;;7397919;19;20501;-52
2024/04/07 00:11:16;;;;;;;0.10;0.10;;;;;;;;;;7399339;19;20130;-53
2024/04/07 00:13:42;;;;;;;0.00;0.00;;;;;;;;;;7399408;19;20142;-52
2024/04/07 00:16:08;;;;;;;0.00;0.00;;;;;;;;;;7399240;19;20150;-52
2024/04/07 00:18:34;;;;;;;0.10;0.10;;;;;;;;;;7399081;19;20138;-53
2024/04/07 00:21:04;;;;;;;0.10;0.10;;;;;;;;;;7399451;19;20142;-53
2024/04/07 00:23:31;;;;;;;0.00;0.00;;;;;;;;;;7398982;19;20593;-53
2024/04/07 00:25:57;;;;;;;0.10;0.10;;;;;;;;;;7399196;19;20144;-54
2024/04/07 00:28:23;;;;;;;0.00;0.00;;;;;;;;;;7397378;19;20147;-54
2024/04/07 00:30:50;;;;;;;0.10;0.10;;;;;;;;;;7398745;19;20122;-54
2024/04/07 00:33:16;;;;;;;0.10;0.10;;;;;;;;;;7398598;19;20130;-54
2024/04/07 00:36:02;;;;;;;0.10;0.10;;;;;;;;;;7398951;19;20151;-54
2024/04/07 00:38:29;;;;;;;0.10;0.10;;;;;;;;;;7398408;19;20165;-55
2024/04/07 00:40:59;;;;;;;0.00;0.00;;;;;;;;;;7398265;19;20138;-55
2024/04/07 00:43:28;;;;;;;0.10;0.10;;;;;;;;;;7398309;19;20175;-55
2024/04/07 00:45:55;;;;;;;0.00;0.00;;;;;;;;;;7398207;19;20632;-55
2024/04/07 00:48:21;;;;;;;0.00;0.00;;;;;;;;;;7396870;19;20138;-55
2024/04/07 00:50:48;;;;;;;0.10;0.10;;;;;;;;;;7396650;19;20174;-55
2024/04/07 00:53:15;;;;;;;0.00;0.00;;;;;;;;;;7397998;19;20202;-54
2024/04/07 00:55:42;;;;;;;0.00;0.00;;;;;;;;;;7398339;19;20138;-54
2024/04/07 00:58:11;;;;;;;0.10;0.10;;;;;;;;;;7396793;19;20250;-54
2024/04/07 01:00:37;;;;;;;0.00;0.00;;;;;;;;;;7397966;19;20175;-54
2024/04/07 01:03:04;;;;;;;0.10;0.10;;;;;;;;;;7397976;19;20217;-55
2024/04/07 01:05:43;;;;;;;0.00;0.00;;;;;;;;;;7397516;19;20141;-54
2024/04/07 01:08:09;;;;;;;0.00;0.00;;;;;;;;;;7395475;19;20168;-55
2024/04/07 01:10:35;;;;;;;0.00;0.00;;;;;;;;;;7395765;19;20142;-53
2024/04/07 01:13:02;;;;;;;0.07;0.07;;;;;;;;;;7396898;19;20134;-54
2024/04/07 01:15:29;;;;;;;0.00;0.00;;;;;;;;;;7395500;19;20134;-55
2024/04/07 01:17:55;;;;;;;0.10;0.10;;;;;;;;;;7397062;19;20613;-54
2024/04/07 01:20:22;;;;;;;0.10;0.10;;;;;;;;;;7397448;19;20134;-55
2024/04/07 01:22:48;;;;;;;0.10;0.10;;;;;;;;;;7397374;19;20212;-54
2024/04/07 01:25:20;;;;;;;0.10;0.10;;;;;;;;;;7396825;19;20141;-53
2024/04/07 01:27:56;;;;;;;0.10;0.10;;;;;;;;;;7396174;19;20138;-53
2024/04/07 01:30:22;;;;;;;0.00;0.00;;;;;;;;;;7396752;19;20150;-54
2024/04/07 01:32:48;;;;;;;0.10;0.10;;;;;;;;;;7396638;19;20613;-54
2024/04/07 01:35:15;;;;;;;0.00;0.00;;;;;;;;;;7395297;19;20665;-54
2024/04/07 01:37:41;;;;;;;0.10;0.10;;;;;;;;;;7396725;19;20217;-54
2024/04/07 01:40:08;;;;;;;0.10;0.10;;;;;;;;;;7396401;19;20141;-54
2024/04/07 01:42:35;;;;;;;0.10;0.10;;;;;;;;;;7396789;19;20142;-55
2024/04/07 01:45:01;;;;;;;0.10;0.10;;;;;;;;;;7395222;19;20187;-55
2024/04/07 01:47:28;;;;;;;0.10;0.10;;;;;;;;;;7395922;19;20552;-54
2024/04/07 01:49:54;;;;;;;0.10;0.10;;;;;;;;;;7395335;19;20173;-54
2024/04/07 01:52:20;;;;;;;0.10;0.10;;;;;;;;;;7395975;19;20489;-53
2024/04/07 01:54:46;;;;;;;0.00;0.00;;;;;;;;;;7396402;19;20134;-54
2024/04/07 01:57:12;;;;;;;0.07;0.07;;;;;;;;;;7396354;19;20201;-54
2024/04/07 01:59:38;;;;;;;0.00;0.00;;;;;;;;;;7396059;19;20138;-54
2024/04/07 02:02:04;;;;;;;0.00;0.00;;;;;;;;;;7395762;19;20134;-54
2024/04/07 02:04:30;;;;;;;0.00;0.00;;;;;;;;;;7396215;19;20154;-55
2024/04/07 02:06:57;;;;;;;0.10;0.10;;;;;;;;;;7395812;19;20133;-53
2024/04/07 02:09:24;;;;;;;0.00;0.00;;;;;;;;;;7394260;19;20142;-54
2024/04/07 02:11:50;;;;;;;0.10;0.10;;;;;;;;;;7395379;19;20482;-54
2024/04/07 02:14:16;;;;;;;0.10;0.10;;;;;;;;;;7395814;19;20137;-54
2024/04/07 02:16:42;;;;;;;0.10;0.10;;;;;;;;;;7395755;19;20173;-54
2024/04/07 02:19:11;;;;;;;0.00;0.00;;;;;;;;;;7395708;19;20608;-54
2024/04/07 02:21:37;;;;;;;0.10;0.10;;;;;;;;;;7395918;19;20202;-54
2024/04/07 02:24:04;;;;;;;0.10;0.10;;;;;;;;;;7395615;19;20497;-54
2024/04/07 02:26:30;;;;;;;0.10;0.10;;;;;;;;;;7395653;19;20137;-55
2024/04/07 02:28:57;;;;;;;0.00;0.00;;;;;;;;;;7393689;19;20138;-55
2024/04/07 02:31:23;;;;;;;0.10;0.10;;;;;;;;;;7395183;19;20485;-55
2024/04/07 02:33:49;;;;;;;0.07;0.07;;;;;;;;;;7395684;19;20141;-55
2024/04/07 02:36:18;;;;;;;0.00;0.00;;;;;;;;;;7395044;19;20465;-55
2024/04/07 02:38:45;;;;;;;0.00;0.00;;;;;;;;;;7394962;19;20138;-54
2024/04/07 02:41:11;;;;;;;0.00;0.00;;;;;;;;;;7395225;19;20144;-55
2024/04/07 02:43:38;;;;;;;0.10;0.10;;;;;;;;;;7394811;19;20141;-54
2024/04/07 02:48:49;;;;;;;0.00;0.00;;;;;;;;;;7393636;19;20141;-55
2024/04/07 02:51:15;;;;;;;0.00;0.00;;;;;;;;;;7392806;19;20150;-55
2024/04/07 02:53:41;;;;;;;0.10;0.10;;;;;;;;;;7394679;19;20402;-54
2024/04/07 02:56:07;;;;;;;0.00;0.00;;;;;;;;;;7394630;19;20130;-55
2024/04/07 02:58:33;;;;;;;0.00;0.00;;;;;;;;;;7394449;19;20594;-55
2024/04/07 03:01:03;;;;;;;0.00;0.00;;;;;;;;;;7394415;19;20146;-54
2024/04/07 03:03:29;;;;;;;0.00;0.00;;;;;;;;;;7394539;19;20601;-54
2024/04/07 03:05:55;;;;;;;0.00;0.00;;;;;;;;;;7394284;19;20134;-53
2024/04/07 03:08:21;;;;;;;0.00;0.00;;;;;;;;;;7393310;19;20130;-55
2024/04/07 03:10:57;;;;;;;0.10;0.10;;;;;;;;;;7394264;19;20138;-54
2024/04/07 03:13:24;;;;;;;0.00;0.00;;;;;;;;;;7394344;19;20606;-54
2024/04/07 03:15:50;;;;;;;0.10;0.10;;;;;;;;;;7394063;19;20179;-55
2024/04/07 03:18:16;;;;;;;0.00;0.00;;;;;;;;;;7392954;19;20161;-54
2024/04/07 03:20:42;;;;;;;0.07;0.07;;;;;;;;;;7393885;19;20130;-54
2024/04/07 03:23:08;;;;;;;0.10;0.10;;;;;;;;;;7393645;19;20126;-55
2024/04/07 03:25:34;;;;;;;0.00;0.00;;;;;;;;;;7393834;19;20130;-55
2024/04/07 03:28:00;;;;;;;0.00;0.00;;;;;;;;;;7393269;19;20142;-54
2024/04/07 03:30:26;;;;;;;0.00;0.00;;;;;;;;;;7392428;19;20142;-54
2024/04/07 03:32:52;;;;;;;0.10;0.10;;;;;;;;;;7393898;19;20201;-54
2024/04/07 03:35:18;;;;;;;0.10;0.10;;;;;;;;;;7393529;19;20649;-54
2024/04/07 03:37:44;;;;;;;0.10;0.10;;;;;;;;;;7395356;19;20165;-55
2024/04/07 03:40:11;;;;;;;0.10;0.10;;;;;;;;;;7401173;19;20130;-54
2024/04/07 03:42:37;;;;;;;0.07;0.07;;;;;;;;;;7401133;19;20142;-54
2024/04/07 03:45:03;;;;;;;0.00;0.00;;;;;;;;;;7400579;19;20134;-54
2024/04/07 03:47:29;;;;;;;0.00;0.00;;;;;;;;;;7398831;19;20192;-54
2024/04/07 03:49:55;;;;;;;0.00;0.00;;;;;;;;;;7399570;19;20162;-55
2024/04/07 03:52:22;;;;;;;0.10;0.10;;;;;;;;;;7399259;19;20146;-55
2024/04/07 03:54:48;;;;;;;0.00;0.00;;;;;;;;;;7400320;19;20137;-55
2024/04/07 03:57:17;;;;;;;0.00;0.00;;;;;;;;;;7400664;19;20146;-55
2024/04/07 03:59:43;;;;;;;0.10;0.10;;;;;;;;;;7400068;19;20138;-55
2024/04/07 04:02:09;;;;;;;0.10;0.10;;;;;;;;;;7400265;19;20146;-54
2024/04/07 04:04:35;;;;;;;0.10;0.10;;;;;;;;;;7400028;19;20555;-55
2024/04/07 04:07:04;;;;;;;0.00;0.00;;;;;;;;;;7400405;19;20138;-55
2024/04/07 04:09:30;;;;;;;0.00;0.00;;;;;;;;;;7399043;19;20144;-54
2024/04/07 04:11:56;;;;;;;0.00;0.00;;;;;;;;;;7400217;19;20138;-55
2024/04/07 04:14:25;;;;;;;0.10;0.10;;;;;;;;;;7399334;19;20165;-54
2024/04/07 04:16:51;;;;;;;0.07;0.07;;;;;;;;;;7399800;19;20514;-55
2024/04/07 04:19:17;;;;;;;0.10;0.10;;;;;;;;;;7399551;19;20126;-55
2024/04/07 04:21:43;;;;;;;0.00;0.00;;;;;;;;;;7399539;19;20593;-55
2024/04/07 04:24:10;;;;;;;0.00;0.00;;;;;;;;;;7399436;19;20122;-54
2024/04/07 04:26:36;;;;;;;0.10;0.10;;;;;;;;;;7399392;19;20137;-54
2024/04/07 04:29:02;;;;;;;0.00;0.00;;;;;;;;;;7397635;19;20138;-54
2024/04/07 04:31:28;;;;;;;0.10;0.10;;;;;;;;;;7399299;19;20145;-54
2024/04/07 04:33:54;;;;;;;0.00;0.00;;;;;;;;;;7399582;19;20138;-54
2024/04/07 04:36:22;;;;;;;0.00;0.00;;;;;;;;;;7399015;19;20193;-54
2024/04/07 04:38:51;;;;;;;0.10;0.10;;;;;;;;;;7398977;19;20226;-54
2024/04/07 04:41:18;;;;;;;0.00;0.00;;;;;;;;;;7397779;19;20202;-54
2024/04/07 04:43:44;;;;;;;0.00;0.00;;;;;;;;;;7398762;19;20171;-54
2024/04/07 04:46:13;;;;;;;0.00;0.00;;;;;;;;;;7398515;19;20145;-53
2024/04/07 04:48:40;;;;;;;0.00;0.00;;;;;;;;;;7395873;19;20226;-54
2024/04/07 04:51:06;;;;;;;0.00;0.00;;;;;;;;;;7394512;19;20629;-54
2024/04/07 04:53:32;;;;;;;0.00;0.00;;;;;;;;;;7398366;19;20158;-55
2024/04/07 04:55:59;;;;;;;0.03;0.03;;;;;;;;;;7398025;19;20141;-53
2024/04/07 04:58:25;;;;;;;0.10;0.10;;;;;;;;;;7398248;19;20520;-54
2024/04/07 05:00:51;;;;;;;0.00;0.00;;;;;;;;;;7397917;19;20209;-54
2024/04/07 05:03:17;;;;;;;0.00;0.00;;;;;;;;;;7398577;19;20161;-54
2024/04/07 05:05:43;;;;;;;0.10;0.10;;;;;;;;;;7396490;19;20597;-54
2024/04/07 05:08:09;;;;;;;0.00;0.00;;;;;;;;;;7396698;19;20197;-54
2024/04/07 05:10:36;;;;;;;0.00;0.00;;;;;;;;;;7398090;19;20135;-54
2024/04/07 05:13:02;;;;;;;0.00;0.00;;;;;;;;;;7398607;19;20141;-54
2024/04/07 05:15:28;;;;;;;0.07;0.07;;;;;;;;;;7397117;19;20197;-53
2024/04/07 05:17:54;;;;;;;0.00;0.00;;;;;;;;;;7398467;19;20134;-55
2024/04/07 05:20:20;;;;;;;0.10;0.10;;;;;;;;;;7397470;19;20138;-54
2024/04/07 05:22:46;;;;;;;0.10;0.10;;;;;;;;;;7397661;19;20565;-54
2024/04/07 05:25:12;;;;;;;0.07;0.07;;;;;;;;;;7397383;19;20140;-54
2024/04/07 05:27:38;;;;;;;0.00;0.00;;;;;;;;;;7396899;19;20598;-54
2024/04/07 05:30:05;;;;;;;0.00;0.00;;;;;;;;;;7397230;19;20130;-55
2024/04/07 05:32:32;;;;;;;0.00;0.00;;;;;;;;;;7396916;19;20130;-55
2024/04/07 05:34:59;;;;;;;0.00;0.00;;;;;;;;;;7396914;19;20134;-55
2024/04/07 05:37:26;;;;;;;0.00;0.00;;;;;;;;;;7397421;19;20134;-54
2024/04/07 05:39:52;;;;;;;0.00;0.00;;;;;;;;;;7397807;19;20150;-54
2024/04/07 05:42:19;;;;;;;0.00;0.00;;;;;;;;;;7396814;19;20509;-55
2024/04/07 05:44:45;;;;;;;0.00;0.00;;;;;;;;;;7396680;19;20129;-55
2024/04/07 05:47:11;;;;;;;0.07;0.07;;;;;;;;;;7396372;19;20216;-54
2024/04/07 05:49:42;;;;;;;0.00;0.00;;;;;;;;;;7396029;19;20142;-54
2024/04/07 05:52:08;;;;;;;0.00;0.00;;;;;;;;;;7397020;19;20138;-53
2024/04/07 05:54:34;;;;;;;0.00;0.00;;;;;;;;;;7396257;19;20482;-53
2024/04/07 05:57:00;;;;;;;0.00;0.00;;;;;;;;;;7396325;19;20134;-54
2024/04/07 05:59:26;;;;;;;0.03;0.03;;;;;;;;;;7394871;19;20165;-54
2024/04/07 06:01:53;;;;;;;0.10;0.10;;;;;;;;;;7395038;19;20601;-54
2024/04/07 06:04:19;;;;;;;0.00;0.00;;;;;;;;;;7396527;19;20161;-56
2024/04/07 06:06:47;;;;;;;0.00;0.00;;;;;;;;;;7395823;19;20145;-54
2024/04/07 06:09:14;;;;;;;0.03;0.03;;;;;;;;;;7394636;19;20137;-54
2024/04/07 06:11:40;;;;;;;0.00;0.00;;;;;;;;;;7395746;19;20602;-55
2024/04/07 06:14:07;;;;;;;0.00;0.00;;;;;;;;;;7395504;19;20206;-56
2024/04/07 06:16:33;;;;;;;0.00;0.00;;;;;;;;;;7395183;19;20643;-55
2024/04/07 06:18:59;;;;;;;0.00;0.00;;;;;;;;;;7395584;19;20130;-54
2024/04/07 06:21:25;;;;;;;0.00;0.00;;;;;;;;;;7395690;19;20589;-55
2024/04/07 06:23:51;;;;;;;0.10;0.10;;;;;;;;;;7395215;19;20317;-54
2024/04/07 06:26:17;;;;;;;0.00;0.00;;;;;;;;;;7395548;19;20589;-54
2024/04/07 06:28:43;;;;;;;0.00;0.00;;;;;;;;;;7394043;19;20165;-54
2024/04/07 06:31:09;;;;;;;0.00;0.00;;;;;;;;;;7395253;19;20605;-54
2024/04/07 06:33:36;;;;;;;0.00;0.00;;;;;;;;;;7394925;19;20137;-54
2024/04/07 06:36:02;;;;;;;0.00;0.00;;;;;;;;;;7395629;19;20162;-54
2024/04/07 06:38:28;;;;;;;0.00;0.00;;;;;;;;;;7395143;19;20137;-53
2024/04/07 06:40:54;;;;;;;0.10;0.10;;;;;;;;;;7395026;19;20506;-55
2024/04/07 06:43:20;;;;;;;0.00;0.00;;;;;;;;;;7393810;19;20153;-55
2024/04/07 06:45:47;;;;;;;0.10;0.10;;;;;;;;;;7394266;19;20169;-54
2024/04/07 06:48:13;;;;;;;0.10;0.10;;;;;;;;;;7394215;19;20221;-54
2024/04/07 06:50:39;;;;;;;0.00;0.00;;;;;;;;;;7393442;19;20209;-54
2024/04/07 06:53:06;;;;;;;0.00;0.00;;;;;;;;;;7394175;19;20145;-54
2024/04/07 06:55:32;;;;;;;0.07;0.07;;;;;;;;;;7394812;19;20134;-54
2024/04/07 06:57:58;;;;;;;0.00;0.00;;;;;;;;;;7394665;19;20129;-54
2024/04/07 07:00:24;;;;;;;0.00;0.00;;;;;;;;;;7395166;19;20133;-54
2024/04/07 07:02:50;;;;;;;0.00;0.00;;;;;;;;;;7394509;19;20201;-54
2024/04/07 07:05:16;;;;;;;0.00;0.00;;;;;;;;;;7394758;19;20530;-55
2024/04/07 07:07:42;;;;;;;0.00;0.00;;;;;;;;;;7393636;19;20492;-54
2024/04/07 07:10:09;;;;;;;0.00;0.00;;;;;;;;;;7393978;19;20130;-54
2024/04/07 07:12:35;;;;;;;0.00;0.00;;;;;;;;;;7395274;19;20579;-53
2024/04/07 07:15:04;;;;;;;0.00;0.00;;;;;;;;;;7401230;19;20130;-53
2024/04/07 07:17:30;;;;;;;0.00;0.00;;;;;;;;;;7401492;19;20170;-53
2024/04/07 07:19:56;;;;;;;0.00;0.00;;;;;;;;;;7401567;19;20129;-53
2024/04/07 07:22:22;;;;;;;0.00;0.00;;;;;;;;;;7401528;19;20134;-54
2024/04/07 07:24:48;;;;;;;0.00;0.00;;;;;;;;;;7401460;19;20134;-54
2024/04/07 07:27:14;;;;;;;0.00;0.00;;;;;;;;;;7400972;19;20130;-54
2024/04/07 07:29:40;;;;;;;0.00;0.00;;;;;;;;;;7401106;19;20138;-54
2024/04/07 07:32:07;;;;;;;0.00;0.00;;;;;;;;;;7400354;19;20197;-54
2024/04/07 07:34:33;;;;;;;0.00;0.00;;;;;;;;;;7400807;19;20134;-53
2024/04/07 07:36:59;;;;;;;0.00;0.00;;;;;;;;;;7400959;19;20487;-54
2024/04/07 07:39:25;;;;;;;0.00;0.00;;;;;;;;;;7400911;19;20205;-53
2024/04/07 07:41:51;;;;;;;0.00;0.00;;;;;;;;;;7399689;19;20150;-54
2024/04/07 07:44:17;;;;;;;0.00;0.00;;;;;;;;;;7401082;19;20138;-53
2024/04/07 07:46:43;;;;;;;0.03;0.03;;;;;;;;;;7401146;19;20181;-54
2024/04/07 07:49:10;;;;;;;0.00;0.00;;;;;;;;;;7396965;19;20598;-53
2024/04/07 07:51:36;;;;;;;0.00;0.00;;;;;;;;;;7400363;19;20142;-53
2024/04/07 07:54:02;;;;;;;0.00;0.00;;;;;;;;;;7399985;19;20210;-53
2024/04/07 07:56:28;;;;;;;0.00;0.00;;;;;;;;;;7400108;19;20126;-53
2024/04/07 07:58:54;;;;;;;0.00;0.00;;;;;;;;;;7400221;19;20201;-54
2024/04/07 08:01:20;;;;;;;0.10;0.10;;;;;;;;;;7399917;19;20145;-54
2024/04/07 08:03:46;;;;;;;0.10;0.10;;;;;;;;;;7399700;19;20137;-55
2024/04/07 08:06:12;;;;;;;0.00;0.00;;;;;;;;;;7399956;19;20146;-54
2024/04/07 08:08:38;;;;;;;0.10;0.10;;;;;;;;;;7397921;19;20134;-55
2024/04/07 08:11:04;;;;;;;0.00;0.00;;;;;;;;;;7399508;19;20141;-53
2024/04/07 08:13:30;;;;;;;0.00;0.00;;;;;;;;;;7400035;19;20146;-54
2024/04/07 08:15:56;;;;;;;0.00;0.00;;;;;;;;;;7398108;19;20160;-53
2024/04/07 08:18:22;;;;;;;0.10;0.10;;;;;;;;;;7402261;19;20144;-53
2024/04/07 08:20:48;;;;;;;0.00;0.00;;;;;;;;;;7398917;19;20134;-53
2024/04/07 08:23:15;;;;;;;0.00;0.00;;;;;;;;;;7398379;19;20141;-53
2024/04/07 08:25:42;;;;;;;0.00;0.00;;;;;;;;;;7399322;19;20138;-55
2024/04/07 08:28:08;;;;;;;0.10;0.10;;;;;;;;;;7398028;19;20130;-53
2024/04/07 08:30:34;;;;;;;0.00;0.00;;;;;;;;;;7398456;19;20134;-53
2024/04/07 08:33:00;;;;;;;0.00;0.00;;;;;;;;;;7398100;19;20134;-55
2024/04/07 08:35:27;;;;;;;0.00;0.00;;;;;;;;;;7398774;19;20605;-53
2024/04/07 08:37:53;;;;;;;0.00;0.00;;;;;;;;;;7398641;19;20156;-53
2024/04/07 08:40:19;;;;;;;0.00;0.00;;;;;;;;;;7399025;19;20142;-54
2024/04/07 08:42:45;;;;;;;0.00;0.00;;;;;;;;;;7398200;19;20125;-54
2024/04/07 08:45:12;;;;;;;0.00;0.00;;;;;;;;;;7398320;19;20616;-51
2024/04/07 08:47:39;;;;;;;0.00;0.00;;;;;;;;;;7397356;19;20142;-50
2024/04/07 08:50:09;;;;;;;0.00;0.00;;;;;;;;;;7395601;19;20174;-51
2024/04/07 08:52:37;;;;;;;0.00;0.00;;;;;;;;;;7395564;19;20162;-49
2024/04/07 08:55:05;;;;;;;0.00;0.00;;;;;;;;;;7397896;19;20628;-51
2024/04/07 08:57:31;;;;;;;0.00;0.00;;;;;;;;;;7398131;19;20164;-49
2024/04/07 08:59:58;;;;;;;0.00;0.00;;;;;;;;;;7397481;19;20198;-52
2024/04/07 09:02:24;;;;;;;0.00;0.00;;;;;;;;;;7397033;19;20153;-51
2024/04/07 09:04:50;;;;;;;0.00;0.00;;;;;;;;;;7397870;19;20134;-51
2024/04/07 09:07:16;;;;;;;0.00;0.00;;;;;;;;;;7395672;19;20138;-54
2024/04/07 09:09:42;;;;;;;0.00;0.00;;;;;;;;;;7397384;19;20636;-50
2024/04/07 09:12:08;;;;;;;0.00;0.00;;;;;;;;;;7396133;19;20197;-50
2024/04/07 09:14:35;;;;;;;0.00;0.00;;;;;;;;;;7397268;19;20547;-50
2024/04/07 09:17:08;;;;;;;0.00;0.00;;;;;;;;;;7395527;19;20162;-53
2024/04/07 09:19:38;;;;;;;0.00;0.00;;;;;;;;;;7396884;19;20138;-51
2024/04/07 09:22:04;;;;;;;0.00;0.00;;;;;;;;;;7396573;19;20262;-52
2024/04/07 09:24:31;;;;;;;0.00;0.00;;;;;;;;;;7396919;19;20154;-51
2024/04/07 09:27:00;;;;;;;0.00;0.00;;;;;;;;;;7396838;19;20209;-52
2024/04/07 09:29:34;;;;;;;0.00;0.00;;;;;;;;;;7395233;19;20594;-52
2024/04/07 09:32:01;;;;;;;0.00;0.00;;;;;;;;;;7396785;19;20201;-52
2024/04/07 09:34:28;;;;;;;0.00;0.00;;;;;;;;;;7396336;19;20133;-53
2024/04/07 09:36:54;;;;;;;0.00;0.00;;;;;;;;;;7394597;19;20130;-55
2024/04/07 09:39:20;;;;;;;0.00;0.00;;;;;;;;;;7396461;19;20488;-53
2024/04/07 09:41:47;;;;;;;0.03;0.03;;;;;;;;;;7395457;19;20156;-55
2024/04/07 09:44:17;;;;;;;0.00;0.00;;;;;;;;;;7395229;19;20145;-55
2024/04/07 09:46:43;;;;;;;0.00;0.00;;;;;;;;;;7396680;19;20161;-55
2024/04/07 09:49:10;;;;;;;0.00;0.00;;;;;;;;;;7394623;19;20142;-54
2024/04/07 09:51:53;;;;;;;0.00;0.00;;;;;;;;;;7395510;19;20134;-57
2024/04/07 09:54:25;;;;;;;0.00;0.00;;;;;;;;;;7395888;19;20144;-55
2024/04/07 09:56:52;;;;;;;0.00;0.00;;;;;;;;;;7395406;19;20141;-54
2024/04/07 09:59:19;;;;;;;0.00;0.00;;;;;;;;;;7396036;19;20205;-55
2024/04/07 10:01:45;;;;;;;0.00;0.00;;;;;;;;;;7394745;19;20157;-54
2024/04/07 10:04:12;;;;;;;0.00;0.00;;;;;;;;;;7395715;19;20134;-54
2024/04/07 10:06:38;;;;;;;0.00;0.00;;;;;;;;;;7395272;19;20130;-55
2024/04/07 10:09:05;;;;;;;0.00;0.00;;;;;;;;;;7393539;19;20657;-54
2024/04/07 10:11:31;;;;;;;0.00;0.00;;;;;;;;;;7395880;19;20144;-54
2024/04/07 10:13:57;;;;;;;0.00;0.00;;;;;;;;;;7395144;19;20142;-54
2024/04/07 10:16:26;;;;;;;0.00;0.00;;;;;;;;;;7394610;19;20146;-54
2024/04/07 10:18:52;;;;;;;0.00;0.00;;;;;;;;;;7395169;19;20167;-54
2024/04/07 10:21:19;;;;;;;0.00;0.00;;;;;;;;;;7395000;19;20142;-54
2024/04/07 10:23:46;;;;;;;0.00;0.00;;;;;;;;;;7394631;19;20142;-54
2024/04/07 10:26:15;;;;;;;0.00;0.00;;;;;;;;;;7394785;19;20622;-53
2024/04/07 10:28:44;;;;;;;0.00;0.00;;;;;;;;;;7394234;19;20740;-54
2024/04/07 10:31:10;;;;;;;0.00;0.00;;;;;;;;;;7394923;19;20138;-52
2024/04/07 10:33:37;;;;;;;0.00;0.00;;;;;;;;;;7394443;19;20157;-53
2024/04/07 10:36:03;;;;;;;0.00;0.00;;;;;;;;;;7393447;19;20126;-53
2024/04/07 10:38:44;;;;;;;0.00;0.00;;;;;;;;;;7394601;19;20138;-53
2024/04/07 10:41:15;;;;;;;0.00;0.00;;;;;;;;;;7394269;19;20157;-52
2024/04/07 10:43:42;;;;;;;0.00;0.00;;;;;;;;;;7394607;19;20138;-52
2024/04/07 10:46:08;;;;;;;0.00;0.00;;;;;;;;;;7393708;19;20533;-52
2024/04/07 10:48:36;;;;;;;0.00;0.00;;;;;;;;;;7396462;19;20134;-53
2024/04/07 10:51:03;;;;;;;0.00;0.00;;;;;;;;;;7398064;19;20517;-52
2024/04/07 10:53:29;;;;;;;0.00;0.00;;;;;;;;;;7401789;19;20142;-52
2024/04/07 10:55:55;;;;;;;0.00;0.00;;;;;;;;;;7400335;19;20134;-51
2024/04/07 10:58:21;;;;;;;0.00;0.00;;;;;;;;;;7401437;19;20166;-52
2024/04/07 11:00:47;;;;;;;0.00;0.00;;;;;;;;;;7402012;19;20144;-52
2024/04/07 11:03:14;;;;;;;0.00;0.00;;;;;;;;;;7401129;19;20152;-51
2024/04/07 11:05:40;;;;;;;0.00;0.00;;;;;;;;;;7400498;19;20150;-51
2024/04/07 11:08:06;;;;;;;0.00;0.00;;;;;;;;;;7399983;19;20126;-52
2024/04/07 11:10:39;;;;;;;0.00;0.00;;;;;;;;;;7400596;19;20242;-51
2024/04/07 11:13:08;;;;;;;0.00;0.00;;;;;;;;;;7399752;19;20212;-52
2024/04/07 11:15:34;;;;;;;0.00;0.00;;;;;;;;;;7401142;19;20162;-50
2024/04/07 11:18:01;;;;;;;0.00;0.00;;;;;;;;;;7401069;19;20134;-51
2024/04/07 11:20:27;;;;;;;0.00;0.00;;;;;;;;;;7398392;19;20142;-52
2024/04/07 11:22:53;;;;;;;0.00;0.00;;;;;;;;;;7400454;19;20144;-53
2024/04/07 11:25:23;;;;;;;0.00;0.00;;;;;;;;;;7401085;19;20136;-52
2024/04/07 11:27:49;;;;;;;0.00;0.00;;;;;;;;;;7398515;19;20140;-52
2024/04/07 11:30:15;;;;;;;0.00;0.00;;;;;;;;;;7398168;19;20134;-51
2024/04/07 11:32:42;;;;;;;0.03;0.03;;;;;;;;;;7399686;19;20134;-51
2024/04/07 11:35:08;;;;;;;0.10;0.10;;;;;;;;;;7399828;19;20133;-51
2024/04/07 11:37:34;;;;;;;0.00;0.00;;;;;;;;;;7400014;19;20157;-52
2024/04/07 11:40:01;;;;;;;0.00;0.00;;;;;;;;;;7399752;19;20134;-51
2024/04/07 11:42:27;;;;;;;0.00;0.00;;;;;;;;;;7399626;19;20209;-53
2024/04/07 11:44:53;;;;;;;0.00;0.00;;;;;;;;;;7399968;19;20134;-52
2024/04/07 11:47:19;;;;;;;0.00;0.00;;;;;;;;;;7399998;19;20176;-51
2024/04/07 11:49:45;;;;;;;0.00;0.00;;;;;;;;;;7397110;19;20523;-51
2024/04/07 11:52:12;;;;;;;0.00;0.00;;;;;;;;;;7399503;19;20134;-51
2024/04/07 11:54:38;;;;;;;0.00;0.00;;;;;;;;;;7399585;19;20130;-51
2024/04/07 11:57:04;;;;;;;0.00;0.00;;;;;;;;;;7399583;19;20149;-51
2024/04/07 11:59:30;;;;;;;0.00;0.00;;;;;;;;;;7397503;19;20157;-51
2024/04/07 12:01:56;;;;;;;0.03;0.03;;;;;;;;;;7399686;19;20605;-51
2024/04/07 12:04:23;;;;;;;0.00;0.00;;;;;;;;;;7399914;19;20142;-51
2024/04/07 12:06:49;;;;;;;0.00;0.00;;;;;;;;;;7399759;19;20138;-50
2024/04/07 12:09:15;;;;;;;0.00;0.00;;;;;;;;;;7397200;19;20604;-49
2024/04/07 12:11:41;;;;;;;0.00;0.00;;;;;;;;;;7399330;19;20486;-50
2024/04/07 12:14:08;;;;;;;0.00;0.00;;;;;;;;;;7399055;19;20134;-51
2024/04/07 12:16:34;;;;;;;0.00;0.00;;;;;;;;;;7399439;19;20154;-50
2024/04/07 12:19:00;;;;;;;0.00;0.00;;;;;;;;;;7397964;19;20142;-50
2024/04/07 12:21:26;;;;;;;0.10;0.10;;;;;;;;;;7398685;19;20205;-50
2024/04/07 12:23:52;;;;;;;0.00;0.00;;;;;;;;;;7397150;19;20159;-54
2024/04/07 12:26:18;;;;;;;0.10;0.10;;;;;;;;;;7398924;19;20137;-49
2024/04/07 12:28:44;;;;;;;0.00;0.00;;;;;;;;;;7396518;19;20496;-50
2024/04/07 12:31:10;;;;;;;0.00;0.00;;;;;;;;;;7398438;19;20152;-50
2024/04/07 12:33:36;;;;;;;0.00;0.00;;;;;;;;;;7398353;19;20134;-49
2024/04/07 12:36:02;;;;;;;0.10;0.10;;;;;;;;;;7398048;19;20134;-49
2024/04/07 12:38:28;;;;;;;0.00;0.00;;;;;;;;;;7397340;19;20221;-49
2024/04/07 12:40:55;;;;;;;0.00;0.00;;;;;;;;;;7397562;19;20134;-50
2024/04/07 12:43:21;;;;;;;0.00;0.00;;;;;;;;;;7398046;19;20548;-50
2024/04/07 12:45:47;;;;;;;0.10;0.10;;;;;;;;;;7397893;19;20146;-51
2024/04/07 12:48:19;;;;;;;0.00;0.00;;;;;;;;;;7397115;19;20620;-50
2024/04/07 12:50:45;;;;;;;0.00;0.00;;;;;;;;;;7395428;19;20177;-51
2024/04/07 12:53:12;;;;;;;0.00;0.00;;;;;;;;;;7397580;19;20175;-51
2024/04/07 12:55:38;;;;;;;0.00;0.00;;;;;;;;;;7397742;19;20138;-50
2024/04/07 12:58:05;;;;;;;0.00;0.00;;;;;;;;;;7396308;19;20473;-51
2024/04/07 13:00:31;;;;;;;0.07;0.07;;;;;;;;;;7397621;19;20138;-50
2024/04/07 13:02:57;;;;;;;0.00;0.00;;;;;;;;;;7397487;19;20130;-51
2024/04/07 13:05:23;;;;;;;0.00;0.00;;;;;;;;;;7396718;19;20203;-49
2024/04/07 13:07:49;;;;;;;0.00;0.00;;;;;;;;;;7395699;19;20126;-50
2024/04/07 13:10:17;;;;;;;0.00;0.00;;;;;;;;;;7394198;19;20149;-51
2024/04/07 13:12:43;;;;;;;0.00;0.00;;;;;;;;;;7396501;19;20137;-49
2024/04/07 13:15:09;;;;;;;0.03;0.03;;;;;;;;;;7396993;19;20134;-51
2024/04/07 13:17:35;;;;;;;0.03;0.03;;;;;;;;;;7397184;19;20142;-50
2024/04/07 13:20:02;;;;;;;0.00;0.00;;;;;;;;;;7396809;19;20605;-49
2024/04/07 13:22:29;;;;;;;0.03;0.03;;;;;;;;;;7394801;19;20138;-50
2024/04/07 13:24:57;;;;;;;0.00;0.00;;;;;;;;;;7396720;19;20130;-49
2024/04/07 13:27:24;;;;;;;0.10;0.10;;;;;;;;;;7396683;19;20547;-49
2024/04/07 13:29:50;;;;;;;0.00;0.00;;;;;;;;;;7394954;19;20597;-50
2024/04/07 13:32:16;;;;;;;0.00;0.00;;;;;;;;;;7394732;19;20482;-50
2024/04/07 13:34:42;;;;;;;0.07;0.07;;;;;;;;;;7395440;19;20171;-49
2024/04/07 13:37:08;;;;;;;0.10;0.10;;;;;;;;;;7395657;19;20153;-50
2024/04/07 13:39:34;;;;;;;0.00;0.00;;;;;;;;;;7395650;19;20589;-50
2024/04/07 13:42:00;;;;;;;0.07;0.07;;;;;;;;;;7396055;19;20138;-50
2024/04/07 13:44:27;;;;;;;0.00;0.00;;;;;;;;;;7396183;19;20151;-50
2024/04/07 13:46:54;;;;;;;0.10;0.10;;;;;;;;;;7395878;19;20142;-48
2024/04/07 13:49:23;;;;;;;0.00;0.00;;;;;;;;;;7394062;19;20189;-49
2024/04/07 13:51:49;;;;;;;0.00;0.00;;;;;;;;;;7393973;19;20191;-50
2024/04/07 13:54:16;;;;;;;0.00;0.00;;;;;;;;;;7393934;19;20476;-49
2024/04/07 13:56:42;;;;;;;0.00;0.00;;;;;;;;;;7394914;19;20126;-50
2024/04/07 13:59:08;;;;;;;0.00;0.00;;;;;;;;;;7394687;19;20159;-50
2024/04/07 14:01:34;;;;;;;0.00;0.00;;;;;;;;;;7395133;19;20122;-50
2024/04/07 14:04:01;;;;;;;0.00;0.00;;;;;;;;;;7395168;19;20130;-50
2024/04/07 14:06:27;;;;;;;0.00;0.00;;;;;;;;;;7394744;19;20500;-48
2024/04/07 14:08:53;;;;;;;0.10;0.10;;;;;;;;;;7393567;19;20630;-49
2024/04/07 14:11:19;;;;;;;0.00;0.00;;;;;;;;;;7394635;19;20150;-50
2024/04/07 14:13:45;;;;;;;0.00;0.00;;;;;;;;;;7394620;19;20134;-49
2024/04/07 14:16:11;;;;;;;0.00;0.00;;;;;;;;;;7393451;19;20157;-49
2024/04/07 14:18:37;;;;;;;0.00;0.00;;;;;;;;;;7394822;19;20141;-49
2024/04/07 14:21:03;;;;;;;0.10;0.10;;;;;;;;;;7394922;19;20661;-50
2024/04/07 14:23:31;;;;;;;0.00;0.00;;;;;;;;;;7394617;19;20138;-50
2024/04/07 14:25:57;;;;;;;0.00;0.00;;;;;;;;;;7393190;19;20138;-50
2024/04/07 14:28:23;;;;;;;0.00;0.00;;;;;;;;;;7392977;19;20142;-49
2024/04/07 14:30:49;;;;;;;0.00;0.00;;;;;;;;;;7394634;19;20187;-51
2024/04/07 14:33:16;;;;;;;0.00;0.00;;;;;;;;;;7394445;19;20176;-50
2024/04/07 14:35:42;;;;;;;0.00;0.00;;;;;;;;;;7393221;19;20150;-50
2024/04/07 14:38:08;;;;;;;0.00;0.00;;;;;;;;;;7392477;19;20205;-50
2024/04/07 14:40:34;;;;;;;0.00;0.00;;;;;;;;;;7393866;19;20161;-51
2024/04/07 14:43:01;;;;;;;0.10;0.10;;;;;;;;;;7394138;19;20157;-49